createdAt,value
2022-09-14T20:58:56.951Z,87.46
2022-09-14T20:59:56.721Z,87.57
2022-09-14T21:00:56.792Z,87.57
2022-09-14T21:02:03.478Z,87.57
2022-09-14T21:02:57.806Z,87.57
2022-09-14T21:03:56.670Z,87.77
2022-09-14T21:04:56.727Z,87.67
2022-09-14T21:05:56.725Z,87.67
2022-09-14T21:06:56.636Z,87.67
2022-09-14T21:07:56.615Z,87.77
2022-09-14T21:08:56.656Z,87.77
2022-09-14T21:09:56.630Z,87.97
2022-09-14T21:10:56.597Z,87.92
2022-09-14T21:11:56.602Z,88.12
2022-09-14T21:12:56.590Z,88.21
2022-09-14T21:13:56.573Z,88.21
2022-09-14T21:14:56.638Z,88.21
2022-09-14T21:15:56.566Z,88.42
2022-09-14T21:16:56.582Z,88.42
2022-09-14T21:17:56.531Z,88.42
2022-09-14T21:18:56.468Z,88.52
2022-09-14T21:19:56.462Z,88.32
2022-09-14T21:20:59.913Z,88.42
2022-09-14T21:21:57.462Z,88.32
2022-09-14T21:22:57.387Z,88.42
2022-09-14T21:23:56.403Z,88.32
2022-09-14T21:24:56.410Z,88.32
2022-09-14T21:25:56.383Z,88.21
2022-09-14T21:26:56.376Z,88.12
2022-09-14T21:27:56.396Z,87.92
2022-09-14T21:28:56.343Z,87.81
2022-09-14T21:29:56.348Z,87.81
2022-09-14T21:30:56.321Z,87.51
2022-09-14T21:32:00.194Z,87.71
2022-09-14T21:32:56.294Z,87.61
2022-09-14T21:33:56.288Z,87.61
2022-09-14T21:34:56.274Z,87.81
2022-09-14T21:35:56.397Z,87.92
2022-09-14T21:36:56.247Z,87.92
2022-09-14T21:37:56.221Z,87.92
2022-09-14T21:38:56.202Z,87.61
2022-09-14T21:39:56.264Z,87.51
2022-09-14T21:40:56.184Z,87.51
2022-09-14T21:42:00.263Z,87.40
2022-09-14T21:42:56.155Z,87.40
2022-09-14T21:43:56.148Z,87.40
2022-09-14T21:44:56.129Z,87.61
2022-09-14T21:45:56.150Z,87.95
2022-09-14T21:46:56.120Z,87.95
2022-09-14T21:47:56.103Z,88.06
2022-09-14T21:48:56.117Z,88.06
2022-09-14T21:49:56.065Z,87.85
2022-09-14T21:50:56.058Z,87.75
2022-09-14T21:51:56.080Z,87.95
2022-09-14T21:52:56.053Z,87.95
2022-09-14T21:53:56.078Z,87.95
2022-09-14T21:54:56.423Z,88.01
2022-09-14T21:55:56.340Z,87.92
2022-09-14T21:56:57.909Z,87.81
2022-09-14T21:57:56.354Z,87.61
2022-09-14T21:58:56.217Z,87.40
2022-09-14T21:59:56.041Z,87.10
2022-09-14T22:00:56.301Z,87.10
2022-09-14T22:01:56.037Z,86.90
2022-09-14T22:02:55.977Z,87.10
2022-09-14T22:03:56.743Z,87.34
2022-09-14T22:04:56.175Z,87.45
2022-09-14T22:05:56.676Z,87.45
2022-09-14T22:06:55.910Z,87.55
2022-09-14T22:07:56.152Z,87.45
2022-09-14T22:08:55.899Z,87.45
2022-09-14T22:09:55.811Z,87.34
2022-09-14T22:10:55.783Z,87.34
2022-09-14T22:11:55.802Z,87.45
2022-09-14T22:12:55.811Z,87.65
2022-09-14T22:13:55.762Z,87.55
2022-09-14T22:14:55.747Z,87.45
2022-09-14T22:15:55.812Z,87.34
2022-09-14T22:16:55.749Z,87.34
2022-09-14T22:17:58.341Z,87.34
2022-09-14T22:18:55.694Z,87.14
2022-09-14T22:19:55.673Z,87.14
2022-09-14T22:20:58.367Z,87.14
2022-09-14T22:21:55.670Z,87.00
2022-09-14T22:22:55.672Z,86.90
2022-09-14T22:23:55.629Z,86.74
2022-09-14T22:24:55.607Z,86.83
2022-09-14T22:25:55.900Z,87.04
2022-09-14T22:26:55.617Z,87.04
2022-09-14T22:27:55.601Z,87.04
2022-09-14T22:28:55.820Z,87.04
2022-09-14T22:29:55.577Z,86.83
2022-09-14T22:30:55.565Z,87.04
2022-09-14T22:31:55.570Z,87.24
2022-09-14T22:32:55.617Z,87.34
2022-09-14T22:33:55.832Z,87.24
2022-09-14T22:34:55.506Z,87.34
2022-09-14T22:35:55.732Z,87.24
2022-09-14T22:36:55.459Z,87.24
2022-09-14T22:37:55.452Z,87.14
2022-09-14T22:38:55.474Z,87.04
2022-09-14T22:39:55.439Z,87.24
2022-09-14T22:40:55.413Z,87.34
2022-09-14T22:41:55.415Z,87.14
2022-09-14T22:42:55.509Z,87.04
2022-09-14T22:43:55.363Z,86.83
2022-09-14T22:44:55.371Z,86.80
2022-09-14T22:45:55.399Z,86.69
2022-09-14T22:46:55.801Z,86.08
2022-09-14T22:47:55.330Z,86.19
2022-09-14T22:48:55.288Z,86.33
2022-09-14T22:49:55.292Z,86.53
2022-09-14T22:50:55.272Z,86.74
2022-09-14T22:51:55.291Z,86.53
2022-09-14T22:52:55.251Z,86.43
2022-09-14T22:53:55.249Z,86.63
2022-09-14T22:54:55.261Z,86.69
2022-09-14T22:55:55.212Z,86.39
2022-09-14T22:56:55.202Z,86.08
2022-09-14T22:57:55.203Z,85.88
2022-09-14T22:58:55.177Z,85.98
2022-09-14T22:59:55.192Z,85.98
2022-09-14T23:00:55.248Z,85.78
2022-09-14T23:01:55.305Z,85.88
2022-09-14T23:02:55.250Z,85.68
2022-09-14T23:03:55.127Z,85.68
2022-09-14T23:04:55.134Z,85.88
2022-09-14T23:05:55.080Z,85.78
2022-09-14T23:06:55.071Z,85.47
2022-09-14T23:07:55.088Z,85.58
2022-09-14T23:08:55.036Z,85.33
2022-09-14T23:09:55.023Z,85.03
2022-09-14T23:10:55.003Z,84.83
2022-09-14T23:11:55.045Z,84.83
2022-09-14T23:12:54.990Z,84.52
2022-09-14T23:13:55.704Z,84.63
2022-09-14T23:14:55.151Z,84.72
2022-09-14T23:15:54.957Z,84.63
2022-09-14T23:16:54.996Z,84.52
2022-09-14T23:17:55.223Z,84.52
2022-09-14T23:18:54.925Z,84.12
2022-09-14T23:19:54.905Z,84.32
2022-09-14T23:20:54.957Z,84.12
2022-09-14T23:21:54.879Z,84.32
2022-09-14T23:22:54.850Z,84.08
2022-09-14T23:23:54.841Z,83.98
2022-09-14T23:24:54.871Z,84.08
2022-09-14T23:25:54.822Z,84.08
2022-09-14T23:26:54.808Z,83.77
2022-09-14T23:27:54.929Z,83.87
2022-09-14T23:28:54.784Z,83.91
2022-09-14T23:29:54.784Z,84.01
2022-09-14T23:30:54.823Z,84.22
2022-09-14T23:31:54.772Z,84.18
2022-09-14T23:32:54.718Z,84.08
2022-09-14T23:33:54.751Z,83.87
2022-09-14T23:34:54.723Z,83.77
2022-09-14T23:35:54.694Z,83.77
2022-09-14T23:36:54.749Z,83.67
2022-09-14T23:37:54.667Z,83.67
2022-09-14T23:38:54.653Z,83.77
2022-09-14T23:39:54.685Z,83.77
2022-09-14T23:40:54.621Z,83.67
2022-09-14T23:41:56.328Z,83.87
2022-09-14T23:42:54.590Z,83.98
2022-09-14T23:43:54.598Z,84.18
2022-09-14T23:44:54.566Z,84.28
2022-09-14T23:45:54.711Z,84.48
2022-09-14T23:46:54.549Z,84.28
2022-09-14T23:47:54.520Z,84.08
2022-09-14T23:48:54.505Z,84.18
2022-09-14T23:49:54.529Z,84.08
2022-09-14T23:50:54.561Z,84.08
2022-09-14T23:51:54.489Z,84.18
2022-09-14T23:52:58.185Z,84.18
2022-09-14T23:53:54.490Z,84.08
2022-09-14T23:54:54.459Z,84.08
2022-09-14T23:55:54.454Z,84.04
2022-09-14T23:56:54.430Z,84.04
2022-09-14T23:57:54.477Z,84.04
2022-09-14T23:58:54.380Z,84.04
2022-09-14T23:59:54.399Z,84.04
